createdAt,value
2023-03-22T00:00:01.966Z,5.97
2023-03-22T00:00:25.126Z,5.20
2023-03-22T00:00:47.890Z,5.35
2023-03-22T00:01:11.525Z,4.45
2023-03-22T00:01:34.933Z,4.55
2023-03-22T00:01:59.849Z,4.50
2023-03-22T00:02:23.190Z,4.40
2023-03-22T00:02:48.422Z,5.13
2023-03-22T00:03:11.551Z,6.35
2023-03-22T00:03:34.338Z,5.53
2023-03-22T00:03:57.371Z,5.13
2023-03-22T00:04:22.552Z,4.03
2023-03-22T00:04:45.295Z,4.03
2023-03-22T00:05:09.956Z,6.13
2023-03-22T00:05:32.791Z,8.25
2023-03-22T00:06:00.324Z,8.05
2023-03-22T00:06:25.056Z,4.85
2023-03-22T00:06:47.844Z,3.72
2023-03-22T00:07:10.593Z,5.18
2023-03-22T00:07:33.274Z,5.93
2023-03-22T00:07:58.253Z,5.53
2023-03-22T00:08:23.855Z,6.05
2023-03-22T00:08:48.550Z,4.70
2023-03-22T00:09:15.092Z,5.03
2023-03-22T00:09:37.906Z,6.13
2023-03-22T00:10:00.801Z,5.10
2023-03-22T00:10:25.851Z,7.05
2023-03-22T00:10:49.154Z,5.25
2023-03-22T00:11:14.938Z,6.70
2023-03-22T00:11:37.713Z,6.93
2023-03-22T00:12:03.441Z,7.38
2023-03-22T00:12:26.158Z,4.38
2023-03-22T00:12:48.900Z,5.65
2023-03-22T00:13:12.204Z,5.63
2023-03-22T00:13:35.785Z,6.10
2023-03-22T00:14:01.600Z,6.20
2023-03-22T00:14:24.406Z,7.22
2023-03-22T00:14:50.678Z,4.30
2023-03-22T00:15:15.834Z,5.72
2023-03-22T00:15:39.776Z,5.78
2023-03-22T00:16:05.007Z,5.30
2023-03-22T00:16:28.074Z,4.30
2023-03-22T00:16:50.891Z,6.45
2023-03-22T00:17:15.819Z,5.35
2023-03-22T00:17:38.503Z,5.88
2023-03-22T00:18:03.416Z,4.47
2023-03-22T00:18:26.238Z,7.22
2023-03-22T00:18:51.428Z,5.60
2023-03-22T00:19:14.099Z,3.97
2023-03-22T00:19:39.033Z,7.22
2023-03-22T00:20:01.769Z,7.10
2023-03-22T00:20:26.981Z,4.22
2023-03-22T00:20:52.119Z,4.78
2023-03-22T00:21:18.017Z,6.55
2023-03-22T00:21:40.993Z,4.43
2023-03-22T00:22:06.277Z,5.03
2023-03-22T00:22:29.109Z,5.07
2023-03-22T00:22:51.824Z,6.55
2023-03-22T00:23:16.691Z,4.28
2023-03-22T00:23:41.641Z,4.63
2023-03-22T00:24:07.048Z,5.25
2023-03-22T00:24:31.166Z,6.05
2023-03-22T00:24:53.979Z,4.95
2023-03-22T00:25:16.800Z,4.80
2023-03-22T00:25:42.503Z,5.72
2023-03-22T00:26:05.604Z,4.60
2023-03-22T00:26:28.335Z,5.68
2023-03-22T00:26:51.044Z,4.20
2023-03-22T00:27:13.741Z,5.60
2023-03-22T00:27:36.533Z,7.72
2023-03-22T00:27:59.248Z,4.93
2023-03-22T00:28:24.248Z,5.80
2023-03-22T00:28:46.995Z,6.95
2023-03-22T00:29:09.804Z,6.18
2023-03-22T00:29:34.978Z,3.55
2023-03-22T00:29:57.703Z,5.68
2023-03-22T00:30:20.643Z,5.28
2023-03-22T00:30:43.597Z,5.55
2023-03-22T00:31:06.760Z,4.50
2023-03-22T00:31:29.532Z,5.72
2023-03-22T00:31:54.427Z,4.13
2023-03-22T00:32:17.224Z,7.10
2023-03-22T00:32:42.400Z,6.00
2023-03-22T00:33:10.191Z,4.68
2023-03-22T00:33:33.179Z,5.72
2023-03-22T00:33:56.325Z,6.55
2023-03-22T00:34:21.609Z,6.18
2023-03-22T00:34:46.721Z,6.70
2023-03-22T00:35:09.670Z,4.45
2023-03-22T00:35:35.008Z,4.97
2023-03-22T00:36:02.440Z,5.15
2023-03-22T00:36:25.331Z,5.90
2023-03-22T00:36:50.243Z,4.93
2023-03-22T00:37:12.904Z,5.10
2023-03-22T00:37:38.774Z,4.85
2023-03-22T00:38:06.591Z,5.22
2023-03-22T00:38:44.969Z,6.30
2023-03-22T00:39:08.059Z,5.72
2023-03-22T00:39:32.243Z,6.30
2023-03-22T00:39:57.228Z,5.13
2023-03-22T00:40:20.630Z,5.63
2023-03-22T00:40:43.356Z,8.80
2023-03-22T00:41:11.872Z,6.55
2023-03-22T00:41:34.512Z,4.15
2023-03-22T00:41:59.519Z,8.45
2023-03-22T00:42:22.400Z,7.18
2023-03-22T00:42:45.176Z,5.65
2023-03-22T00:43:07.985Z,6.00
2023-03-22T00:43:30.724Z,6.20
2023-03-22T00:43:55.842Z,5.78
2023-03-22T00:44:18.581Z,8.02
2023-03-22T00:44:43.718Z,6.00
2023-03-22T00:45:08.164Z,6.72
2023-03-22T00:45:30.987Z,5.30
2023-03-22T00:45:55.949Z,4.38
2023-03-22T00:46:20.165Z,6.13
2023-03-22T00:46:45.508Z,7.75
2023-03-22T00:47:08.699Z,6.45
2023-03-22T00:47:33.860Z,5.25
2023-03-22T00:47:56.696Z,5.13
2023-03-22T00:48:19.410Z,5.50
2023-03-22T00:48:44.186Z,6.70
2023-03-22T00:49:06.902Z,4.60
2023-03-22T00:49:31.938Z,4.45
2023-03-22T00:49:54.717Z,6.38
2023-03-22T00:50:19.676Z,6.40
2023-03-22T00:50:42.449Z,6.15
2023-03-22T00:51:07.980Z,4.28
2023-03-22T00:51:33.278Z,4.55
2023-03-22T00:51:56.667Z,6.95
2023-03-22T00:52:21.682Z,5.63
2023-03-22T00:52:44.358Z,4.85
2023-03-22T00:53:09.371Z,4.00
2023-03-22T00:53:36.628Z,5.10
2023-03-22T00:53:59.530Z,5.85
2023-03-22T00:54:22.811Z,4.68
2023-03-22T00:54:49.217Z,5.70
2023-03-22T00:55:11.982Z,6.50
2023-03-22T00:55:34.725Z,5.47
2023-03-22T00:55:57.416Z,4.82
2023-03-22T00:56:20.329Z,3.72
2023-03-22T00:56:45.623Z,3.55
2023-03-22T00:57:08.369Z,5.35
2023-03-22T00:57:33.604Z,4.28
2023-03-22T00:57:57.021Z,4.68
2023-03-22T00:58:19.768Z,4.32
2023-03-22T00:58:42.882Z,4.90
2023-03-22T00:59:08.928Z,4.00
2023-03-22T00:59:31.739Z,5.03
2023-03-22T00:59:56.057Z,4.88
2023-03-22T01:00:19.209Z,3.90
2023-03-22T01:00:44.509Z,7.53
2023-03-22T01:01:07.576Z,6.07
2023-03-22T01:01:30.468Z,5.30
2023-03-22T01:01:55.358Z,4.03
2023-03-22T01:02:18.155Z,4.95
2023-03-22T01:02:41.797Z,6.68
2023-03-22T01:03:05.137Z,7.40
2023-03-22T01:03:27.981Z,3.88
2023-03-22T01:03:50.978Z,5.40
2023-03-22T01:04:18.201Z,6.47
2023-03-22T01:04:46.604Z,5.07
2023-03-22T01:05:09.632Z,4.45
2023-03-22T01:05:33.686Z,4.68
2023-03-22T01:05:56.436Z,4.53
2023-03-22T01:06:19.163Z,3.65
2023-03-22T01:06:41.825Z,5.85
2023-03-22T01:07:07.741Z,5.82
2023-03-22T01:07:30.469Z,4.13
2023-03-22T01:07:55.285Z,4.00
2023-03-22T01:08:18.082Z,3.10
2023-03-22T01:08:40.830Z,3.92
2023-03-22T01:09:05.144Z,5.35
2023-03-22T01:09:31.386Z,5.10
2023-03-22T01:09:55.564Z,4.85
2023-03-22T01:10:18.463Z,4.03
2023-03-22T01:10:42.000Z,7.10
2023-03-22T01:11:05.171Z,6.05
2023-03-22T01:11:28.160Z,5.85
2023-03-22T01:11:50.840Z,5.93
2023-03-22T01:12:13.634Z,4.18
2023-03-22T01:12:36.350Z,4.18
2023-03-22T01:12:59.036Z,4.40
2023-03-22T01:13:21.820Z,7.13
2023-03-22T01:13:44.554Z,4.30
2023-03-22T01:14:10.089Z,6.63
2023-03-22T01:14:32.890Z,4.95
2023-03-22T01:14:55.603Z,4.90
2023-03-22T01:15:18.430Z,5.38
2023-03-22T01:15:41.536Z,3.42
2023-03-22T01:16:04.672Z,4.40
2023-03-22T01:16:27.446Z,5.50
2023-03-22T01:16:50.457Z,5.65
2023-03-22T01:17:13.173Z,7.65
2023-03-22T01:17:38.483Z,5.70
2023-03-22T01:18:01.795Z,4.65
2023-03-22T01:18:24.448Z,4.00
2023-03-22T01:18:47.207Z,5.90
2023-03-22T01:19:13.197Z,6.63
2023-03-22T01:19:38.693Z,7.18
2023-03-22T01:20:01.424Z,5.85
2023-03-22T01:20:24.193Z,6.77
2023-03-22T01:20:46.882Z,6.13
2023-03-22T01:21:09.507Z,5.68
2023-03-22T01:21:34.643Z,6.18
2023-03-22T01:21:57.828Z,6.97
2023-03-22T01:22:20.729Z,4.80
2023-03-22T01:22:43.534Z,4.05
2023-03-22T01:23:06.347Z,4.93
2023-03-22T01:23:29.134Z,5.63
2023-03-22T01:23:51.852Z,5.43
2023-03-22T01:24:17.177Z,4.63
2023-03-22T01:24:39.884Z,6.47
2023-03-22T01:25:04.961Z,6.72
2023-03-22T01:25:27.926Z,5.60
2023-03-22T01:25:50.641Z,6.25
2023-03-22T01:26:13.332Z,7.22
2023-03-22T01:26:36.180Z,7.50
2023-03-22T01:26:58.879Z,6.00
2023-03-22T01:27:21.628Z,5.35
2023-03-22T01:27:44.352Z,6.00
2023-03-22T01:28:07.866Z,5.28
2023-03-22T01:28:30.917Z,4.30
2023-03-22T01:28:53.568Z,4.22
2023-03-22T01:29:18.621Z,5.60
2023-03-22T01:29:41.597Z,3.95
2023-03-22T01:30:04.901Z,6.30
2023-03-22T01:30:27.670Z,7.47
2023-03-22T01:30:51.567Z,4.32
2023-03-22T01:31:14.444Z,6.05
2023-03-22T01:31:37.137Z,4.68
2023-03-22T01:31:59.936Z,4.82
2023-03-22T01:32:22.697Z,4.93
2023-03-22T01:32:45.502Z,6.43
2023-03-22T01:33:08.249Z,4.70
2023-03-22T01:33:31.070Z,5.55
2023-03-22T01:33:53.767Z,5.80
2023-03-22T01:34:16.472Z,3.38
2023-03-22T01:34:39.268Z,3.95
2023-03-22T01:35:01.979Z,6.50
2023-03-22T01:35:24.684Z,6.28
2023-03-22T01:35:47.436Z,6.43
2023-03-22T01:36:11.309Z,5.63
2023-03-22T01:36:34.171Z,6.82
2023-03-22T01:36:56.833Z,6.20
2023-03-22T01:37:22.451Z,6.00
2023-03-22T01:37:45.372Z,4.13
2023-03-22T01:38:10.395Z,4.43
2023-03-22T01:38:35.528Z,5.45
2023-03-22T01:39:00.467Z,3.83
2023-03-22T01:39:23.183Z,4.43
2023-03-22T01:39:46.089Z,5.00
2023-03-22T01:40:11.498Z,5.80
2023-03-22T01:40:34.215Z,6.22
2023-03-22T01:40:57.485Z,6.50
2023-03-22T01:41:20.321Z,3.47
2023-03-22T01:41:45.239Z,3.20
2023-03-22T01:42:11.995Z,4.57
2023-03-22T01:42:34.667Z,3.92
2023-03-22T01:42:57.439Z,7.75
2023-03-22T01:43:20.228Z,5.88
2023-03-22T01:43:42.909Z,4.18
2023-03-22T01:44:12.936Z,4.00
2023-03-22T01:44:37.034Z,6.35
2023-03-22T01:45:35.265Z,4.35
2023-03-22T01:45:58.313Z,6.35
2023-03-22T01:46:21.103Z,5.80
2023-03-22T01:46:44.313Z,3.78
2023-03-22T01:47:09.006Z,5.07
2023-03-22T01:47:31.842Z,4.88
2023-03-22T01:47:56.244Z,4.35
2023-03-22T01:48:25.759Z,5.55
2023-03-22T01:48:48.882Z,3.50
2023-03-22T01:49:13.593Z,3.88
2023-03-22T01:49:36.416Z,4.03
2023-03-22T01:49:59.158Z,6.00
2023-03-22T01:50:21.906Z,5.85
2023-03-22T01:50:48.222Z,4.50
2023-03-22T01:51:12.316Z,4.80
2023-03-22T01:51:35.121Z,7.28
2023-03-22T01:51:58.649Z,3.95
2023-03-22T01:52:21.381Z,3.95
2023-03-22T01:52:44.174Z,4.15
2023-03-22T01:53:06.894Z,4.18
2023-03-22T01:53:30.426Z,4.35
2023-03-22T01:53:54.893Z,5.20
2023-03-22T01:54:20.255Z,4.47
2023-03-22T01:54:44.367Z,3.83
2023-03-22T01:55:09.610Z,5.30
2023-03-22T01:55:33.792Z,4.75
2023-03-22T01:55:56.639Z,5.47
2023-03-22T01:56:21.152Z,7.15
2023-03-22T01:56:43.980Z,6.75
2023-03-22T01:57:06.737Z,4.65
2023-03-22T01:57:29.462Z,4.68
2023-03-22T01:57:54.458Z,4.07
2023-03-22T01:58:18.456Z,7.13
2023-03-22T01:58:41.130Z,6.75
2023-03-22T01:59:04.150Z,6.07
2023-03-22T01:59:26.877Z,5.20
2023-03-22T01:59:50.697Z,5.63
2023-03-22T02:00:16.083Z,6.18
2023-03-22T02:00:39.050Z,6.50
2023-03-22T02:01:02.392Z,6.35
2023-03-22T02:01:25.995Z,4.53
2023-03-22T02:01:50.025Z,4.13
2023-03-22T02:02:15.217Z,4.75
2023-03-22T02:02:38.048Z,6.50
2023-03-22T02:03:01.280Z,6.20
2023-03-22T02:03:30.409Z,6.63
2023-03-22T02:03:56.008Z,4.07
2023-03-22T02:04:20.256Z,5.35
2023-03-22T02:04:43.003Z,5.22
2023-03-22T02:05:08.612Z,5.45
2023-03-22T02:05:31.479Z,5.15
2023-03-22T02:05:55.367Z,5.80
2023-03-22T02:06:18.246Z,7.07
2023-03-22T02:06:43.158Z,6.68
2023-03-22T02:07:10.257Z,4.40
2023-03-22T02:07:33.031Z,4.57
2023-03-22T02:07:55.842Z,6.15
2023-03-22T02:08:18.630Z,7.72
2023-03-22T02:08:42.777Z,6.15
2023-03-22T02:09:06.092Z,5.38
2023-03-22T02:09:30.096Z,6.80
2023-03-22T02:09:53.104Z,4.40
2023-03-22T02:10:17.282Z,4.45
2023-03-22T02:10:41.397Z,5.45
2023-03-22T02:11:04.696Z,5.65
2023-03-22T02:11:30.881Z,6.53
2023-03-22T02:11:56.729Z,3.17
2023-03-22T02:12:25.518Z,4.28
2023-03-22T02:12:59.688Z,4.20
2023-03-22T02:13:39.043Z,6.05
2023-03-22T02:14:23.631Z,6.70
2023-03-22T02:14:56.959Z,4.45
2023-03-22T02:15:21.935Z,4.45
2023-03-22T02:15:47.446Z,4.93
2023-03-22T02:16:16.706Z,5.68
2023-03-22T02:16:44.524Z,5.18
2023-03-22T02:17:17.574Z,5.72
2023-03-22T02:17:45.286Z,5.27
2023-03-22T02:18:28.811Z,4.82
2023-03-22T02:18:58.952Z,4.30
2023-03-22T02:19:47.286Z,4.57
2023-03-22T02:20:42.534Z,5.15
2023-03-22T02:21:30.241Z,5.82
2023-03-22T02:22:21.990Z,7.15
2023-03-22T02:23:19.848Z,6.70
2023-03-22T02:24:24.227Z,7.28
2023-03-22T02:25:19.306Z,5.07
2023-03-22T02:26:32.340Z,4.15
2023-03-22T02:27:40.655Z,3.90
2023-03-22T02:28:14.813Z,5.72
2023-03-22T02:28:42.730Z,7.25
2023-03-22T02:29:07.525Z,5.07
2023-03-22T02:29:34.934Z,6.65
2023-03-22T02:30:04.605Z,5.15
2023-03-22T02:31:01.273Z,6.10
2023-03-22T02:31:43.664Z,5.45
2023-03-22T02:32:42.957Z,5.20
2023-03-22T02:33:44.110Z,4.07
2023-03-22T02:34:32.898Z,7.13
2023-03-22T02:35:14.810Z,6.00
2023-03-22T02:35:47.209Z,5.25
2023-03-22T02:36:30.932Z,4.47
2023-03-22T02:37:22.026Z,4.72
2023-03-22T02:38:11.032Z,4.85
2023-03-22T02:38:57.933Z,7.13
2023-03-22T02:39:26.911Z,4.30
2023-03-22T02:39:50.543Z,6.75
2023-03-22T02:40:14.550Z,5.10
2023-03-22T02:40:38.949Z,5.35
2023-03-22T02:41:08.338Z,6.47
2023-03-22T02:41:37.399Z,6.25
2023-03-22T02:42:09.927Z,4.85
2023-03-22T02:42:40.421Z,6.30
2023-03-22T02:43:07.007Z,7.97
2023-03-22T02:43:34.596Z,4.40
2023-03-22T02:44:04.502Z,4.85
2023-03-22T02:44:29.761Z,3.78
2023-03-22T02:44:58.306Z,4.45
2023-03-22T02:45:23.820Z,4.50
2023-03-22T02:45:48.285Z,3.90
2023-03-22T02:46:12.503Z,4.97
2023-03-22T02:46:38.018Z,5.80
2023-03-22T02:47:02.550Z,8.48
2023-03-22T02:47:28.644Z,6.93
2023-03-22T02:47:55.522Z,4.28
2023-03-22T02:48:23.210Z,5.07
2023-03-22T02:48:50.870Z,6.55
2023-03-22T02:49:18.394Z,5.75
2023-03-22T02:49:41.972Z,5.93
2023-03-22T02:50:08.972Z,5.53
2023-03-22T02:50:35.705Z,5.63
2023-03-22T02:51:00.769Z,5.40
2023-03-22T02:51:25.111Z,4.85
2023-03-22T02:51:49.437Z,5.00
2023-03-22T02:52:17.570Z,6.80
2023-03-22T02:52:42.317Z,4.30
2023-03-22T02:53:07.264Z,6.40
2023-03-22T02:53:31.823Z,4.10
2023-03-22T02:53:58.047Z,4.97
2023-03-22T02:54:22.785Z,5.07
2023-03-22T02:54:47.680Z,4.82
2023-03-22T02:55:12.283Z,5.60
2023-03-22T02:55:37.261Z,4.32
2023-03-22T02:56:01.113Z,6.95
2023-03-22T02:56:25.920Z,5.55
2023-03-22T02:56:50.243Z,5.35
2023-03-22T02:57:15.870Z,5.53
2023-03-22T02:57:40.957Z,5.35
2023-03-22T02:58:05.297Z,6.38
2023-03-22T02:58:29.435Z,5.32
2023-03-22T02:58:53.561Z,6.25
2023-03-22T02:59:16.969Z,5.65
2023-03-22T02:59:41.165Z,6.20
2023-03-22T03:00:08.829Z,4.43
2023-03-22T03:00:32.466Z,4.18
2023-03-22T03:00:58.142Z,4.93
2023-03-22T03:01:24.555Z,4.32
2023-03-22T03:01:49.504Z,6.70
2023-03-22T03:02:13.680Z,7.93
2023-03-22T03:02:36.377Z,5.07
2023-03-22T03:03:03.199Z,5.82
2023-03-22T03:03:29.376Z,5.80
2023-03-22T03:03:52.984Z,7.03
2023-03-22T03:04:17.094Z,6.68
2023-03-22T03:04:42.297Z,5.88
2023-03-22T03:05:05.509Z,4.78
2023-03-22T03:05:30.334Z,3.75
2023-03-22T03:05:55.999Z,8.30
2023-03-22T03:06:19.499Z,5.97
2023-03-22T03:06:46.105Z,5.40
2023-03-22T03:07:09.946Z,4.25
2023-03-22T03:07:32.772Z,5.80
2023-03-22T03:07:59.982Z,7.20
2023-03-22T03:08:23.827Z,4.60
2023-03-22T03:08:47.113Z,4.03
2023-03-22T03:09:13.926Z,4.88
2023-03-22T03:09:37.074Z,5.75
2023-03-22T03:09:59.834Z,8.68
2023-03-22T03:10:22.564Z,4.07
2023-03-22T03:10:45.335Z,5.13
2023-03-22T03:11:09.158Z,5.75
2023-03-22T03:11:32.429Z,4.22
2023-03-22T03:11:55.396Z,4.15
2023-03-22T03:12:18.801Z,5.30
2023-03-22T03:12:41.453Z,5.18
2023-03-22T03:13:06.347Z,4.90
2023-03-22T03:13:29.118Z,6.50
2023-03-22T03:13:51.834Z,5.13
2023-03-22T03:14:24.794Z,6.53
2023-03-22T03:14:47.525Z,6.10
2023-03-22T03:15:13.783Z,6.63
2023-03-22T03:15:36.473Z,5.85
2023-03-22T03:15:59.734Z,7.13
2023-03-22T03:16:23.217Z,6.88
2023-03-22T03:16:48.384Z,6.57
2023-03-22T03:17:16.485Z,6.00
2023-03-22T03:17:45.210Z,5.00
2023-03-22T03:18:19.499Z,4.95
2023-03-22T03:18:47.218Z,6.45
2023-03-22T03:19:12.410Z,5.47
2023-03-22T03:19:38.805Z,5.05
2023-03-22T03:20:22.256Z,4.90
2023-03-22T03:20:52.346Z,5.43
2023-03-22T03:21:21.939Z,6.60
2023-03-22T03:21:48.650Z,7.18
2023-03-22T03:22:22.720Z,6.95
2023-03-22T03:22:51.809Z,4.95
2023-03-22T03:23:20.170Z,6.10
2023-03-22T03:23:49.340Z,6.40
2023-03-22T03:24:18.971Z,7.68
2023-03-22T03:24:45.205Z,6.20
2023-03-22T03:25:10.140Z,5.30
2023-03-22T03:25:34.737Z,5.22
2023-03-22T03:26:01.723Z,4.80
2023-03-22T03:26:28.266Z,6.10
2023-03-22T03:26:56.488Z,4.03
2023-03-22T03:27:23.237Z,5.28
2023-03-22T03:27:50.265Z,8.43
2023-03-22T03:28:15.180Z,7.13
2023-03-22T03:28:40.084Z,6.80
2023-03-22T03:29:04.295Z,6.50
2023-03-22T03:29:33.770Z,4.82
2023-03-22T03:30:00.012Z,5.38
2023-03-22T03:30:24.727Z,7.35
2023-03-22T03:30:50.090Z,9.32
2023-03-22T03:31:20.179Z,7.20
2023-03-22T03:31:43.923Z,5.07
2023-03-22T03:32:08.765Z,5.75
2023-03-22T03:32:35.364Z,5.85
2023-03-22T03:32:59.592Z,7.30
2023-03-22T03:33:22.337Z,5.40
2023-03-22T03:33:48.173Z,6.88
2023-03-22T03:34:14.814Z,5.32
2023-03-22T03:34:40.012Z,5.85
2023-03-22T03:35:06.224Z,6.10
2023-03-22T03:35:32.694Z,4.75
2023-03-22T03:35:58.759Z,4.00
2023-03-22T03:36:21.568Z,5.95
2023-03-22T03:36:47.356Z,5.05
2023-03-22T03:37:11.812Z,5.00
2023-03-22T03:37:35.405Z,6.05
2023-03-22T03:38:01.771Z,4.43
2023-03-22T03:38:26.731Z,4.30
2023-03-22T03:38:52.329Z,4.57
2023-03-22T03:39:16.576Z,6.78
2023-03-22T03:39:41.794Z,4.60
2023-03-22T03:40:09.775Z,5.35
2023-03-22T03:40:33.989Z,4.95
2023-03-22T03:40:59.189Z,5.10
2023-03-22T03:41:23.942Z,5.78
2023-03-22T03:41:46.890Z,6.88
2023-03-22T03:42:12.943Z,6.43
2023-03-22T03:42:35.677Z,7.30
2023-03-22T03:42:59.232Z,6.55
2023-03-22T03:43:21.891Z,6.40
2023-03-22T03:43:44.562Z,5.53
2023-03-22T03:44:07.235Z,4.88
2023-03-22T03:44:30.563Z,6.13
2023-03-22T03:44:53.276Z,6.85
2023-03-22T03:45:16.006Z,7.05
2023-03-22T03:45:38.723Z,5.25
2023-03-22T03:46:01.510Z,5.72
2023-03-22T03:46:24.475Z,6.28
2023-03-22T03:46:47.296Z,6.05
2023-03-22T03:47:09.973Z,8.63
2023-03-22T03:47:32.717Z,10.00
2023-03-22T03:47:57.853Z,9.02
2023-03-22T03:48:22.107Z,7.68
2023-03-22T03:48:47.800Z,5.35
2023-03-22T03:49:10.489Z,6.55
2023-03-22T03:49:33.295Z,5.35
2023-03-22T03:49:58.535Z,7.18
2023-03-22T03:50:21.271Z,5.68
2023-03-22T03:50:43.940Z,6.18
2023-03-22T03:51:07.415Z,5.53
2023-03-22T03:51:30.150Z,6.18
2023-03-22T03:51:55.741Z,6.18
2023-03-22T03:52:18.396Z,5.60
2023-03-22T03:52:41.452Z,5.10
2023-03-22T03:53:04.227Z,6.35
2023-03-22T03:53:26.911Z,6.40
2023-03-22T03:53:49.610Z,5.47
2023-03-22T03:54:14.726Z,5.30
2023-03-22T03:54:38.836Z,6.40
2023-03-22T03:55:01.681Z,5.55
2023-03-22T03:55:24.491Z,5.70
2023-03-22T03:55:47.189Z,4.97
2023-03-22T03:56:12.671Z,6.20
2023-03-22T03:56:35.355Z,4.65
2023-03-22T03:57:03.462Z,6.45
2023-03-22T03:57:27.526Z,6.47
2023-03-22T03:57:50.287Z,6.65
2023-03-22T03:58:13.066Z,6.10
2023-03-22T03:58:38.238Z,5.38
2023-03-22T03:59:01.129Z,6.90
2023-03-22T03:59:23.774Z,5.03
2023-03-22T03:59:49.007Z,4.95
2023-03-22T04:00:14.992Z,5.68
2023-03-22T04:00:38.215Z,6.40
2023-03-22T04:01:01.320Z,4.78
2023-03-22T04:01:24.328Z,5.45
2023-03-22T04:01:50.438Z,5.07
2023-03-22T04:02:13.381Z,4.88
2023-03-22T04:02:36.162Z,4.90
2023-03-22T04:02:58.906Z,6.25
2023-03-22T04:03:21.712Z,4.40
2023-03-22T04:03:44.424Z,5.07
2023-03-22T04:04:07.601Z,5.38
2023-03-22T04:04:30.323Z,5.88
2023-03-22T04:04:53.040Z,6.72
2023-03-22T04:05:18.513Z,5.63
2023-03-22T04:05:41.668Z,5.38
2023-03-22T04:06:04.608Z,6.50
2023-03-22T04:06:27.322Z,4.78
2023-03-22T04:06:50.049Z,5.55
2023-03-22T04:07:12.784Z,6.15
2023-03-22T04:07:35.527Z,5.50
2023-03-22T04:07:58.297Z,5.57
2023-03-22T04:08:23.402Z,6.72
2023-03-22T04:08:46.191Z,5.50
2023-03-22T04:09:08.959Z,4.50
2023-03-22T04:09:32.819Z,6.65
2023-03-22T04:09:56.972Z,4.97
2023-03-22T04:10:19.767Z,5.65
2023-03-22T04:10:42.554Z,6.05
2023-03-22T04:11:05.477Z,7.85
2023-03-22T04:11:28.158Z,6.60
2023-03-22T04:11:51.528Z,5.15
2023-03-22T04:12:14.217Z,6.43
2023-03-22T04:12:36.966Z,6.80
2023-03-22T04:12:59.672Z,5.32
2023-03-22T04:13:24.685Z,5.50
2023-03-22T04:13:47.443Z,6.70
2023-03-22T04:14:10.725Z,5.30
2023-03-22T04:14:33.461Z,6.75
2023-03-22T04:14:56.161Z,5.82
2023-03-22T04:15:18.878Z,6.32
2023-03-22T04:15:41.607Z,5.45
2023-03-22T04:16:04.547Z,6.68
2023-03-22T04:16:27.292Z,5.53
2023-03-22T04:16:50.102Z,6.25
2023-03-22T04:17:12.825Z,7.07
2023-03-22T04:17:35.533Z,6.15
2023-03-22T04:18:00.580Z,7.00
2023-03-22T04:18:23.692Z,8.90
2023-03-22T04:18:46.479Z,5.70
2023-03-22T04:19:12.459Z,4.35
2023-03-22T04:19:35.552Z,5.03
2023-03-22T04:19:58.287Z,4.85
2023-03-22T04:20:23.285Z,5.47
2023-03-22T04:20:46.962Z,8.05
2023-03-22T04:21:12.277Z,6.28
2023-03-22T04:21:34.918Z,5.72
2023-03-22T04:21:57.597Z,5.10
2023-03-22T04:22:20.269Z,5.20
2023-03-22T04:22:43.378Z,7.28
2023-03-22T04:23:06.080Z,7.05
2023-03-22T04:23:28.888Z,7.05
2023-03-22T04:23:51.533Z,8.32
2023-03-22T04:24:17.499Z,5.55
2023-03-22T04:24:41.473Z,4.85
2023-03-22T04:25:06.394Z,6.13
2023-03-22T04:25:30.123Z,4.65
2023-03-22T04:25:53.798Z,6.07
2023-03-22T04:26:18.746Z,5.85
2023-03-22T04:26:41.608Z,8.50
2023-03-22T04:27:04.404Z,7.35
2023-03-22T04:27:29.368Z,8.32
2023-03-22T04:27:52.183Z,8.73
2023-03-22T04:28:14.915Z,8.57
2023-03-22T04:28:37.596Z,7.55
2023-03-22T04:29:00.653Z,5.95
2023-03-22T04:29:24.686Z,6.30
2023-03-22T04:29:48.339Z,5.60
2023-03-22T04:30:12.477Z,6.32
2023-03-22T04:30:36.512Z,6.63
2023-03-22T04:30:59.620Z,8.32
2023-03-22T04:31:22.437Z,8.32
2023-03-22T04:31:45.202Z,6.30
2023-03-22T04:32:07.882Z,6.93
2023-03-22T04:32:33.017Z,6.05
2023-03-22T04:32:56.510Z,8.05
2023-03-22T04:33:19.420Z,7.03
2023-03-22T04:33:47.089Z,5.20
2023-03-22T04:34:09.810Z,7.30
2023-03-22T04:34:32.817Z,7.88
2023-03-22T04:34:55.583Z,6.75
2023-03-22T04:35:18.428Z,5.85
2023-03-22T04:35:41.158Z,6.30
2023-03-22T04:36:05.996Z,6.60
2023-03-22T04:36:31.230Z,7.45
2023-03-22T04:36:54.609Z,7.97
2023-03-22T04:37:17.351Z,5.70
2023-03-22T04:37:40.027Z,6.25
2023-03-22T04:38:02.733Z,5.43
2023-03-22T04:38:25.469Z,7.68
2023-03-22T04:38:48.150Z,8.10
2023-03-22T04:39:11.495Z,5.35
2023-03-22T04:39:34.245Z,6.65
2023-03-22T04:39:57.021Z,6.45
2023-03-22T04:40:21.830Z,6.35
2023-03-22T04:40:46.900Z,5.10
2023-03-22T04:41:09.730Z,4.57
2023-03-22T04:41:32.411Z,5.47
2023-03-22T04:41:55.150Z,5.47
2023-03-22T04:42:17.779Z,4.85
2023-03-22T04:42:40.656Z,6.35
2023-03-22T04:43:04.298Z,6.20
2023-03-22T04:43:27.911Z,5.95
2023-03-22T04:43:51.222Z,6.72
2023-03-22T04:44:16.420Z,10.48
2023-03-22T04:44:40.111Z,8.80
2023-03-22T04:45:04.193Z,8.75
2023-03-22T04:45:29.394Z,7.10
2023-03-22T04:45:55.229Z,7.65
2023-03-22T04:46:18.188Z,6.57
2023-03-22T04:46:42.870Z,6.95
2023-03-22T04:47:06.100Z,9.32
2023-03-22T04:47:28.800Z,6.75
2023-03-22T04:47:51.557Z,6.82
2023-03-22T04:48:14.351Z,6.68
2023-03-22T04:48:37.986Z,8.45
2023-03-22T04:49:01.291Z,8.35
2023-03-22T04:49:23.996Z,9.57
2023-03-22T04:49:47.705Z,8.88
2023-03-22T04:50:10.836Z,7.43
2023-03-22T04:50:33.496Z,6.30
2023-03-22T04:50:56.222Z,6.80
2023-03-22T04:51:18.912Z,5.88
2023-03-22T04:51:41.618Z,8.45
2023-03-22T04:52:04.351Z,8.13
2023-03-22T04:52:27.152Z,8.30
2023-03-22T04:52:50.139Z,7.70
2023-03-22T04:53:12.945Z,6.45
2023-03-22T04:53:38.974Z,8.07
2023-03-22T04:54:01.732Z,10.18
2023-03-22T04:54:24.522Z,7.68
2023-03-22T04:54:47.186Z,6.07
2023-03-22T04:55:10.081Z,6.85
2023-03-22T04:55:34.309Z,8.68
2023-03-22T04:55:58.775Z,7.43
2023-03-22T04:56:21.670Z,11.45
2023-03-22T04:56:44.319Z,10.40
2023-03-22T04:57:07.380Z,8.90
2023-03-22T04:57:31.730Z,7.50
2023-03-22T04:57:55.053Z,6.72
2023-03-22T04:58:22.227Z,7.40
2023-03-22T04:58:44.970Z,10.45
2023-03-22T04:59:07.675Z,7.40
2023-03-22T04:59:30.334Z,9.98
2023-03-22T04:59:53.068Z,8.13
2023-03-22T05:00:19.038Z,8.23
2023-03-22T05:00:42.635Z,7.55
2023-03-22T05:01:06.104Z,7.45
2023-03-22T05:01:28.825Z,8.52
2023-03-22T05:01:51.852Z,7.93
2023-03-22T05:02:14.544Z,9.80
2023-03-22T05:02:41.598Z,10.27
2023-03-22T05:03:05.969Z,9.52
2023-03-22T05:03:28.827Z,8.23
2023-03-22T05:03:51.689Z,8.43
2023-03-22T05:04:14.473Z,8.43
2023-03-22T05:04:39.776Z,9.25
2023-03-22T05:05:02.436Z,9.75
2023-03-22T05:05:25.245Z,9.50
2023-03-22T05:05:52.799Z,8.63
2023-03-22T05:06:15.605Z,9.27
2023-03-22T05:06:40.694Z,7.38
2023-03-22T05:07:03.500Z,6.30
2023-03-22T05:07:26.309Z,8.23
2023-03-22T05:07:49.010Z,8.35
2023-03-22T05:08:14.470Z,9.02
2023-03-22T05:08:40.221Z,11.90
2023-03-22T05:09:03.041Z,12.23
2023-03-22T05:09:25.794Z,7.68
2023-03-22T05:09:48.544Z,9.32
2023-03-22T05:10:11.318Z,10.02
2023-03-22T05:10:39.368Z,8.57
2023-03-22T05:11:05.752Z,7.97
2023-03-22T05:11:28.507Z,10.65
2023-03-22T05:11:53.404Z,10.07
2023-03-22T05:12:16.390Z,10.55
2023-03-22T05:12:41.197Z,8.38
2023-03-22T05:13:04.006Z,10.10
2023-03-22T05:13:27.837Z,9.70
2023-03-22T05:13:50.471Z,9.80
2023-03-22T05:14:13.245Z,8.40
2023-03-22T05:14:36.226Z,9.45
2023-03-22T05:15:01.104Z,9.57
2023-03-22T05:15:23.869Z,10.30
2023-03-22T05:15:49.785Z,9.80
2023-03-22T05:16:12.822Z,9.10
2023-03-22T05:16:36.097Z,8.73
2023-03-22T05:16:58.819Z,7.32
2023-03-22T05:17:21.667Z,6.65
2023-03-22T05:17:44.485Z,10.07
2023-03-22T05:18:09.359Z,7.03
2023-03-22T05:18:32.942Z,7.22
2023-03-22T05:18:57.924Z,5.95
2023-03-22T05:19:22.494Z,7.28
2023-03-22T05:19:48.420Z,9.95
2023-03-22T05:20:11.730Z,11.52
2023-03-22T05:20:37.758Z,8.57
2023-03-22T05:21:03.851Z,6.60
2023-03-22T05:21:29.544Z,10.40
2023-03-22T05:21:58.322Z,10.63
2023-03-22T05:22:22.572Z,10.63
2023-03-22T05:22:45.951Z,8.55
2023-03-22T05:23:09.964Z,10.40
2023-03-22T05:23:32.724Z,10.05
2023-03-22T05:23:56.591Z,10.63
2023-03-22T05:24:22.490Z,9.75
2023-03-22T05:24:48.627Z,8.60
2023-03-22T05:25:11.837Z,7.97
2023-03-22T05:25:36.076Z,6.65
2023-03-22T05:25:58.729Z,6.35
2023-03-22T05:26:24.520Z,9.18
2023-03-22T05:26:47.674Z,10.15
2023-03-22T05:27:11.003Z,10.48
2023-03-22T05:27:36.068Z,8.93
2023-03-22T05:28:01.779Z,8.70
2023-03-22T05:28:25.159Z,8.85
2023-03-22T05:28:47.848Z,12.50
2023-03-22T05:29:11.188Z,12.38
2023-03-22T05:29:37.223Z,11.60
2023-03-22T05:29:59.939Z,12.90
2023-03-22T05:30:25.929Z,15.07
2023-03-22T05:30:48.803Z,11.35
2023-03-22T05:31:14.904Z,11.38
2023-03-22T05:31:37.898Z,14.10
2023-03-22T05:32:00.790Z,12.63
2023-03-22T05:32:25.751Z,12.80
2023-03-22T05:32:51.354Z,11.48
2023-03-22T05:33:14.395Z,15.93